Tipton, Missouri
Current Conditions -  °F | °C
As of 5:15 AM on Friday 24 Oct 2014 (Local Time) from KVER Reporting Station
Haze Haze  
Wind Chill: 55°   Ceiling: 800
Heat Index: 55°   Visibility: 4mi
Dew Point: 55°   Wind: 3mph
Humidity: 100%   Direction: 240°WSW
Pressure: 30.09"   Gusts: NA
Location:  38.66°N, 92.78°W
Report Text: KVER 241015Z AUTO 24003KT 4SM BR OVC008 13/13 A3009 RMK AO2 T01280129
Loading
Personal Weather Stations






























Interactive Weather Map New forecast layout! Learn more

10-Day Weather Forecast

Advertisements
Track Severe Weather on mobile